Time;durP1;ratioP1;P1;durP2;ratioP2;P2;SDS_P1;SDS_P2;PMS_P1;PMS_P2;Temp;Humidity;BMP_temperature;BMP_pressure;BME280_temperature;BME280_humidity;BME280_pressure;Samples;Min_cycle;Max_cycle;Signal;HPM_P1;HPM_P2
2021/04/21 00:00:00;;;;;;;5.37;4.83;;;;;;;16.47;60.62;99020.48;1788871;78;21169;-70
2021/04/21 00:02:28;;;;;;;5.20;4.70;;;;;;;16.46;60.60;99016.18;1790579;78;21379;-70
2021/04/21 00:04:55;;;;;;;4.97;4.47;;;;;;;16.46;60.60;99021.55;1787340;78;21111;-71
2021/04/21 00:07:23;;;;;;;5.22;4.72;;;;;;;16.45;60.59;99020.70;1799764;78;21153;-72
2021/04/21 00:09:52;;;;;;;5.37;4.85;;;;;;;16.45;60.58;99027.40;1786389;78;21799;-72
2021/04/21 00:12:22;;;;;;;4.83;4.42;;;;;;;16.45;60.56;99030.61;1788189;78;21126;-72
2021/04/21 00:14:51;;;;;;;5.37;4.87;;;;;;;16.44;60.55;99024.97;1761137;78;22804;-70
2021/04/21 00:17:23;;;;;;;5.22;4.72;;;;;;;16.43;60.54;99028.67;1788265;78;21161;-71
2021/04/21 00:19:53;;;;;;;5.60;4.95;;;;;;;16.42;60.54;99025.19;1786004;78;21170;-72
2021/04/21 00:22:22;;;;;;;4.90;4.12;;;;;;;16.43;60.53;99034.04;1799344;78;21586;-71
2021/04/21 00:24:51;;;;;;;4.70;4.30;;;;;;;16.42;60.55;99032.41;1786190;78;21137;-70
2021/04/21 00:27:19;;;;;;;4.75;4.35;;;;;;;16.41;60.53;99032.11;1788579;78;22198;-69
2021/04/21 00:29:49;;;;;;;5.15;4.60;;;;;;;16.40;60.50;99029.11;1785801;78;21155;-69
2021/04/21 00:32:17;;;;;;;5.55;4.90;;;;;;;16.39;60.50;99035.00;1786824;78;21146;-70
2021/04/21 00:34:45;;;;;;;5.10;4.65;;;;;;;16.38;60.51;99030.70;1789453;78;21154;-69
2021/04/21 00:37:13;;;;;;;5.03;4.42;;;;;;;16.38;60.50;99033.37;1794315;78;21166;-69
2021/04/21 00:39:43;;;;;;;5.33;4.83;;;;;;;16.37;60.50;99036.28;1790206;78;21337;-70
2021/04/21 00:42:37;;;;;;;5.03;4.53;;;;;;;16.36;60.51;99038.15;1787009;78;21177;-71
2021/04/21 00:45:13;;;;;;;5.22;4.72;;;;;;;16.36;60.48;99038.64;1786494;78;21587;-70
2021/04/21 00:47:51;;;;;;;5.05;4.55;;;;;;;16.33;60.54;99041.79;1784266;78;21149;-69
2021/04/21 00:50:37;;;;;;;5.05;4.55;;;;;;;16.31;60.54;99040.14;1797127;78;21796;-71
2021/04/21 00:53:12;;;;;;;5.17;4.67;;;;;;;16.31;60.56;99045.50;1787358;78;21620;-70
2021/04/21 00:56:07;;;;;;;5.33;4.67;;;;;;;16.28;60.56;99040.59;1795861;79;21133;-70
2021/04/21 00:59:15;;;;;;;5.10;4.60;;;;;;;16.28;60.58;99045.12;1776809;79;21656;-69
2021/04/21 01:01:43;;;;;;;4.55;4.15;;;;;;;16.25;60.58;99049.07;1800377;79;21154;-70
2021/04/21 01:04:11;;;;;;;4.95;4.47;;;;;;;16.21;60.62;99042.52;1784534;79;21209;-70
2021/04/21 01:06:43;;;;;;;4.85;4.35;;;;;;;16.20;60.65;99042.73;1789380;79;21149;-71
2021/04/21 01:09:11;;;;;;;4.95;4.55;;;;;;;16.20;60.65;99042.73;1784570;79;21204;-71
2021/04/21 01:11:49;;;;;;;5.45;4.95;;;;;;;16.19;60.63;99045.94;1777075;79;21181;-71
2021/04/21 01:14:25;;;;;;;4.35;3.98;;;;;;;16.19;60.62;99043.80;1796503;79;21605;-71
2021/04/21 01:16:58;;;;;;;4.87;4.37;;;;;;;16.18;60.62;99044.29;1788061;79;21589;-70
2021/04/21 01:19:43;;;;;;;4.65;4.25;;;;;;;16.18;60.67;99044.82;1786355;79;21419;-70
2021/04/21 01:22:49;;;;;;;5.25;4.50;;;;;;;16.18;60.66;99053.67;1807297;79;21148;-71
2021/04/21 01:25:22;;;;;;;5.17;4.67;;;;;;;16.16;60.67;99046.90;1790667;79;21177;-70
2021/04/21 01:27:59;;;;;;;;;;;;;;;16.12;60.70;99044.66;1805955;79;21178;-70
2021/04/21 01:30:28;;;;;;;4.40;4.00;;;;;;;16.11;60.68;99052.94;1797332;78;20261;-70
2021/04/21 01:33:01;;;;;;;5.17;4.67;;;;;;;16.03;60.83;99059.39;1777583;79;22445;-70
2021/04/21 01:35:29;;;;;;;5.20;4.62;;;;;;;16.03;60.87;99046.50;1790345;79;21153;-70
2021/04/21 01:38:02;;;;;;;4.85;4.45;;;;;;;16.04;60.84;99053.51;1788978;79;21149;-72
2021/04/21 01:40:31;;;;;;;;;;;;;;;16.04;60.84;99053.51;1795743;79;21142;-70
2021/04/21 01:43:04;;;;;;;5.22;4.72;;;;;;;16.04;60.81;99054.85;1795866;78;20602;-70
2021/04/21 01:45:31;;;;;;;5.00;4.60;;;;;;;15.97;60.93;99061.59;1786041;79;21209;-69
2021/04/21 01:48:03;;;;;;;4.97;4.50;;;;;;;15.97;60.94;99054.08;1809138;79;21680;-70
2021/04/21 01:50:32;;;;;;;4.65;4.22;;;;;;;15.97;60.94;99058.10;1790457;79;21162;-71
2021/04/21 01:53:20;;;;;;;4.58;4.17;;;;;;;15.99;60.92;99058.70;1807385;78;21121;-72
2021/04/21 01:56:09;;;;;;;4.72;4.33;;;;;;;15.99;60.90;99064.05;1818052;78;21137;-70
2021/04/21 01:58:54;;;;;;;5.10;4.60;;;;;;;15.98;60.85;99059.75;1788098;79;21367;-71
2021/04/21 02:01:30;;;;;;;4.70;4.30;;;;;;;15.97;60.84;99062.93;1791355;79;21101;-70
2021/04/21 02:04:19;;;;;;;4.65;4.25;;;;;;;15.96;60.84;99061.30;1793385;79;21547;-70
2021/04/21 02:06:57;;;;;;;5.17;4.67;;;;;;;15.97;60.87;99056.77;1796786;78;21161;-70
2021/04/21 02:09:57;;;;;;;4.53;4.12;;;;;;;15.96;60.87;99061.83;1824156;78;21143;-70
2021/04/21 02:13:02;;;;;;;4.95;3.80;;;;;;;15.95;60.85;99058.84;1819760;78;21348;-71
2021/04/21 02:16:20;;;;;;;4.62;4.12;;;;;;;15.92;60.83;99057.43;1794152;79;21189;-71
2021/04/21 02:19:16;;;;;;;4.20;3.80;;;;;;;15.90;60.89;99060.32;1822254;78;21602;-72
2021/04/21 02:22:05;;;;;;;5.65;4.12;;;;;;;15.87;60.90;99062.61;1819085;77;21158;-72
2021/04/21 02:24:57;;;;;;;4.53;4.12;;;;;;;15.85;60.93;99057.47;1822379;78;21627;-71
2021/04/21 02:27:52;;;;;;;4.92;4.45;;;;;;;15.85;60.98;99056.66;1797145;78;21306;-71
2021/04/21 02:31:00;;;;;;;4.90;4.40;;;;;;;15.82;60.98;99055.25;1815276;78;21140;-70
2021/04/21 02:33:54;;;;;;;4.53;4.10;;;;;;;15.81;61.00;99064.31;1749179;81;21238;-70
2021/04/21 02:36:48;;;;;;;5.03;4.53;;;;;;;15.79;61.03;99062.38;1759910;79;21146;-72
2021/04/21 02:39:25;;;;;;;4.53;4.12;;;;;;;15.77;61.08;99059.09;1796375;78;21116;-70
2021/04/21 02:42:30;;;;;;;4.58;4.17;;;;;;;15.76;61.05;99056.13;1796354;78;21371;-70
2021/04/21 02:45:10;;;;;;;5.22;4.53;;;;;;;15.76;61.09;99061.98;1818291;78;21154;-70
2021/04/21 02:47:52;;;;;;;4.35;3.95;;;;;;;15.75;61.09;99067.86;1789724;79;21094;-70
2021/04/21 02:50:24;;;;;;;4.90;4.47;;;;;;;15.73;61.09;99061.91;1786128;79;21095;-70
2021/04/21 02:53:00;;;;;;;4.33;3.92;;;;;;;15.75;61.07;99072.41;1806815;78;21188;-70
2021/04/21 02:55:39;;;;;;;5.62;4.60;;;;;;;15.73;61.03;99071.28;1797042;79;21178;-71
2021/04/21 02:58:15;;;;;;;4.90;4.45;;;;;;;15.75;61.03;99073.75;1804131;79;21188;-71
2021/04/21 03:00:52;;;;;;;4.60;4.20;;;;;;;15.74;61.03;99075.58;1792234;79;21145;-71
2021/04/21 03:04:09;;;;;;;5.10;4.25;;;;;;;15.74;61.02;99071.56;1808185;79;21145;-71
2021/04/21 03:06:39;;;;;;;4.08;3.67;;;;;;;15.73;61.02;99078.78;1792700;79;21179;-71
2021/04/21 03:09:12;;;;;;;4.55;4.15;;;;;;;15.71;61.06;99086.72;1773018;79;22108;-70
2021/04/21 03:11:39;;;;;;;;;;;;;;;15.70;61.05;99080.55;1767454;79;21132;-73
2021/04/21 03:14:22;;;;;;;4.95;4.17;;;;;;;15.70;61.01;99079.70;1799910;79;20287;-71
2021/04/21 03:17:00;;;;;;;4.80;4.15;;;;;;;15.64;61.16;99089.95;1787758;79;21172;-71
2021/04/21 03:19:31;;;;;;;4.62;4.17;;;;;;;15.65;61.19;99091.61;1787037;79;21090;-71
2021/04/21 03:22:01;;;;;;;5.12;4.62;;;;;;;15.65;61.18;99092.95;1798063;79;21210;-70
2021/04/21 03:24:31;;;;;;;5.00;4.37;;;;;;;15.65;61.17;99095.09;1785009;79;21192;-72
2021/04/21 03:27:04;;;;;;;5.05;4.55;;;;;;;15.66;61.11;99091.89;1793701;79;21170;-72
2021/04/21 03:29:45;;;;;;;4.90;4.17;;;;;;;15.67;61.15;99098.38;1800988;79;21129;-71
2021/04/21 03:32:22;;;;;;;4.62;4.22;;;;;;;15.67;61.11;99097.56;1792328;78;21161;-73
2021/04/21 03:34:50;;;;;;;5.55;4.78;;;;;;;15.67;61.11;99097.56;1792282;79;21368;-73
2021/04/21 03:37:47;;;;;;;4.40;4.00;;;;;;;15.67;61.09;99106.41;1792286;79;21165;-72
2021/04/21 03:40:15;;;;;;;4.15;3.75;;;;;;;15.69;61.04;99107.53;1786890;79;21612;-71
2021/04/21 03:42:43;;;;;;;4.87;4.12;;;;;;;15.67;61.04;99112.29;1796811;79;21172;-72
2021/04/21 03:45:33;;;;;;;5.20;4.78;;;;;;;15.67;61.07;99121.13;1791460;79;21660;-73
2021/04/21 03:48:00;;;;;;;5.10;4.30;;;;;;;15.68;61.06;99115.25;1734602;81;21373;-72
2021/04/21 03:50:28;;;;;;;4.62;4.22;;;;;;;15.68;61.02;99117.93;1735065;81;21189;-71
2021/04/21 03:53:02;;;;;;;4.53;4.08;;;;;;;15.68;61.03;99124.63;1731307;81;21566;-74
2021/04/21 03:55:31;;;;;;;4.78;4.22;;;;;;;15.68;60.96;99127.30;1735304;81;21150;-73
2021/04/21 03:58:13;;;;;;;4.40;4.00;;;;;;;15.69;60.98;99124.94;1724213;81;21162;-73
2021/04/21 04:00:41;;;;;;;4.85;4.45;;;;;;;15.69;60.95;99128.95;1731706;81;21190;-72
2021/04/21 04:03:14;;;;;;;4.75;4.35;;;;;;;15.69;60.98;99131.11;1737298;81;21182;-72
2021/04/21 04:06:11;;;;;;;5.25;4.75;;;;;;;15.69;60.94;99133.78;1743503;81;21348;-73
2021/04/21 04:08:49;;;;;;;4.45;4.05;;;;;;;15.70;60.94;99141.30;1713824;81;21123;-72
2021/04/21 04:11:21;;;;;;;4.85;4.45;;;;;;;15.68;60.94;99141.53;1731683;81;21138;-72
2021/04/21 04:13:49;;;;;;;4.50;4.10;;;;;;;15.68;60.92;99148.23;1735721;81;21339;-73
2021/04/21 04:16:16;;;;;;;5.00;4.50;;;;;;;15.70;60.90;99152.84;1749127;81;21190;-72
2021/04/21 04:18:44;;;;;;;5.03;4.53;;;;;;;15.70;60.90;99152.00;1728276;81;21194;-72
2021/04/21 04:21:12;;;;;;;4.55;3.98;;;;;;;15.71;60.89;99157.67;1713559;81;21606;-71
2021/04/21 04:23:41;;;;;;;4.08;3.67;;;;;;;15.72;60.84;99157.47;1728249;81;21665;-70
2021/04/21 04:26:09;;;;;;;4.40;4.00;;;;;;;15.73;60.82;99155.63;1708758;82;21211;-70
2021/04/21 04:28:39;;;;;;;5.58;4.60;;;;;;;15.72;60.79;99156.13;1710271;81;22128;-71
2021/04/21 04:31:07;;;;;;;4.42;3.95;;;;;;;15.74;60.81;99161.27;1718905;82;21130;-70
2021/04/21 04:33:35;;;;;;;4.20;3.80;;;;;;;15.75;60.75;99162.93;1724804;81;21816;-71
2021/04/21 04:36:04;;;;;;;4.55;4.15;;;;;;;15.76;60.73;99163.74;1714279;82;21150;-70
2021/04/21 04:38:32;;;;;;;4.87;4.42;;;;;;;15.76;60.72;99167.27;1737752;81;21376;-71
2021/04/21 04:41:00;;;;;;;3.95;3.65;;;;;;;15.79;60.65;99171.36;1720122;82;21158;-72
2021/04/21 04:43:28;;;;;;;4.62;4.22;;;;;;;15.80;60.65;99168.47;1719797;81;21179;-70
2021/04/21 04:45:59;;;;;;;4.10;3.70;;;;;;;15.81;60.67;99170.09;1728179;81;21602;-70
2021/04/21 04:48:44;;;;;;;4.80;4.37;;;;;;;15.82;60.60;99169.57;1706022;83;21633;-71
2021/04/21 04:51:12;;;;;;;4.33;3.90;;;;;;;15.83;60.59;99166.68;1672195;85;21512;-71
2021/04/21 04:53:40;;;;;;;4.78;4.28;;;;;;;15.84;60.57;99165.66;1701375;84;21621;-70
2021/04/21 04:56:07;;;;;;;4.35;3.95;;;;;;;15.85;60.80;99168.63;1725622;83;21603;-71
2021/04/21 04:58:35;;;;;;;4.35;3.95;;;;;;;15.89;61.46;99171.69;1726330;81;21638;-71
2021/04/21 05:01:06;;;;;;;4.35;3.95;;;;;;;15.99;62.26;99176.04;1697635;82;21191;-73
2021/04/21 05:03:54;;;;;;;4.10;3.77;;;;;;;16.12;62.12;99175.13;1725588;82;21425;-72
2021/04/21 05:06:31;;;;;;;4.55;4.15;;;;;;;16.14;62.01;99175.73;1713656;82;21168;-72
2021/04/21 05:09:04;;;;;;;4.15;3.83;;;;;;;16.14;61.88;99182.44;1659609;85;21634;-73
2021/04/21 05:11:31;;;;;;;4.95;4.42;;;;;;;16.14;61.78;99184.30;1724111;83;21200;-71
2021/04/21 05:13:59;;;;;;;4.72;3.85;;;;;;;16.16;61.66;99188.92;1707885;81;21130;-73
2021/04/21 05:16:52;;;;;;;5.12;4.62;;;;;;;16.18;61.50;99189.52;1724069;83;21196;-72
2021/04/21 05:20:11;;;;;;;5.17;4.67;;;;;;;16.19;61.41;99188.50;1686578;83;21190;-73
2021/04/21 05:23:11;;;;;;;4.60;4.20;;;;;;;16.19;61.23;99197.88;1698775;84;21158;-72
2021/04/21 05:26:09;;;;;;;5.50;5.00;;;;;;;16.21;61.24;99199.81;1829591;76;28194;-72
2021/04/21 05:29:06;;;;;;;4.55;4.15;;;;;;;16.43;60.71;99201.58;1797733;78;21145;-73
2021/04/21 05:32:11;;;;;;;4.53;4.10;;;;;;;16.66;59.92;99207.67;1843778;77;22296;-72
2021/04/21 05:35:10;;;;;;;4.92;4.37;;;;;;;16.57;59.94;99206.30;1841384;77;21160;-72
2021/04/21 05:38:18;;;;;;;4.70;4.20;;;;;;;16.50;60.09;99209.06;1853763;77;21144;-73
2021/04/21 05:41:15;;;;;;;5.15;4.30;;;;;;;16.45;60.11;99214.25;1849864;77;21148;-73
2021/04/21 05:44:25;;;;;;;5.03;4.55;;;;;;;16.41;60.19;99213.05;1830556;77;21612;-72
2021/04/21 05:47:43;;;;;;;5.28;4.78;;;;;;;16.37;60.23;99216.69;1805588;76;22848;-73
2021/04/21 05:50:50;;;;;;;4.67;4.25;;;;;;;16.34;60.27;99221.66;1823909;78;21177;-73
2021/04/21 05:53:57;;;;;;;4.97;4.58;;;;;;;16.27;60.36;99221.19;1806422;78;21101;-73
2021/04/21 05:57:07;;;;;;;4.53;4.12;;;;;;;16.24;60.39;99228.31;1807606;76;21183;-73
2021/04/21 06:00:05;;;;;;;4.83;4.33;;;;;;;16.21;60.43;99230.11;1827106;78;21171;-72
2021/04/21 06:02:34;;;;;;;5.12;4.62;;;;;;;16.18;60.47;99229.72;1824010;78;21357;-71
2021/04/21 06:05:13;;;;;;;5.08;4.50;;;;;;;16.16;60.50;99239.31;1816073;78;21138;-71
2021/04/21 06:07:42;;;;;;;4.95;4.35;;;;;;;16.17;60.55;99234.27;1814422;78;21152;-73
2021/04/21 06:10:27;;;;;;;5.20;4.70;;;;;;;16.18;60.55;99236.42;1824139;76;21307;-72
2021/04/21 06:12:58;;;;;;;4.80;4.30;;;;;;;16.18;60.53;99239.09;1802946;76;21617;-72
2021/04/21 06:15:28;;;;;;;4.70;4.30;;;;;;;16.18;60.55;99241.77;1803736;76;22515;-71
2021/04/21 06:17:59;;;;;;;5.25;4.75;;;;;;;16.18;60.59;99241.25;1801781;78;21688;-72
2021/04/21 06:20:38;;;;;;;4.70;4.30;;;;;;;16.18;60.55;99242.59;1806436;78;21161;-74
2021/04/21 06:23:20;;;;;;;5.10;4.10;;;;;;;16.18;60.53;99237.23;1800420;78;21134;-73
2021/04/21 06:26:00;;;;;;;4.95;4.30;;;;;;;16.21;60.52;99245.38;1800438;78;21151;-72
2021/04/21 06:28:28;;;;;;;4.55;4.10;;;;;;;16.21;60.51;99242.70;1808028;78;21184;-72
2021/04/21 06:31:07;;;;;;;4.67;4.28;;;;;;;16.21;60.48;99246.19;1802686;76;21121;-71
2021/04/21 06:33:44;;;;;;;5.10;4.60;;;;;;;16.21;60.48;99244.84;1806556;78;21601;-72
2021/04/21 06:36:13;;;;;;;4.95;4.45;;;;;;;16.24;60.44;99239.56;1808780;76;21611;-71
2021/04/21 06:38:42;;;;;;;5.10;4.60;;;;;;;16.24;60.46;99241.72;1801154;78;21157;-71
2021/04/21 06:41:11;;;;;;;5.05;4.05;;;;;;;16.24;60.44;99244.39;1834710;76;21279;-71
2021/04/21 06:43:39;;;;;;;5.25;4.75;;;;;;;16.27;60.41;99251.20;1808637;78;21411;-72
2021/04/21 06:46:10;;;;;;;4.72;4.25;;;;;;;16.28;60.36;99253.67;1817294;76;21609;-74
2021/04/21 06:48:38;;;;;;;4.65;4.25;;;;;;;16.30;60.29;99253.43;1816496;78;21172;-69
2021/04/21 06:51:11;;;;;;;4.85;4.35;;;;;;;16.31;60.30;99253.22;1816911;76;21582;-69
2021/04/21 06:53:39;;;;;;;4.83;4.35;;;;;;;16.33;60.25;99262.39;1812808;78;21371;-70
2021/04/21 06:56:07;;;;;;;4.95;4.45;;;;;;;16.35;60.21;99251.45;1811699;76;21163;-69
2021/04/21 06:58:35;;;;;;;5.20;4.55;;;;;;;16.36;60.22;99264.64;1805884;78;21131;-67
2021/04/21 07:01:14;;;;;;;4.90;4.50;;;;;;;16.38;60.20;99264.41;1800071;78;21153;-74
2021/04/21 07:03:43;;;;;;;4.87;4.37;;;;;;;16.40;60.15;99264.51;1804481;76;21145;-71
2021/04/21 07:06:13;;;;;;;4.95;4.53;;;;;;;16.43;60.08;99265.92;1808341;78;21360;-66
2021/04/21 07:08:40;;;;;;;4.55;4.15;;;;;;;16.45;60.08;99259.30;1810677;76;21247;-69
2021/04/21 07:11:10;;;;;;;5.30;4.60;;;;;;;16.47;59.99;99262.58;1800632;78;21121;-69
2021/04/21 07:13:45;;;;;;;4.47;4.08;;;;;;;16.51;59.96;99265.15;1816194;77;21581;-67
2021/04/21 07:16:22;;;;;;;4.78;4.20;;;;;;;16.54;59.89;99271.92;1806027;77;21154;-66
2021/04/21 07:19:01;;;;;;;5.72;4.33;;;;;;;16.58;59.86;99276.34;1807143;77;21354;-67
2021/04/21 07:21:29;;;;;;;4.62;4.20;;;;;;;16.60;59.80;99275.06;1795000;77;21653;-68
2021/04/21 07:24:00;;;;;;;4.58;4.17;;;;;;;16.63;59.75;99274.64;1804732;77;21527;-70
2021/04/21 07:26:43;;;;;;;4.78;4.28;;;;;;;16.65;59.69;99275.25;1803549;77;21626;-73
2021/04/21 07:29:19;;;;;;;4.80;4.30;;;;;;;16.67;59.66;99279.86;1815942;76;21168;-69
2021/04/21 07:31:49;;;;;;;5.10;4.60;;;;;;;16.70;59.59;99281.28;1808757;77;21355;-70
2021/04/21 07:34:30;;;;;;;4.67;4.28;;;;;;;16.73;59.59;99284.87;1810266;76;21169;-70
2021/04/21 07:36:58;;;;;;;4.97;4.58;;;;;;;16.75;59.55;99281.45;1816042;76;21593;-68
2021/04/21 07:39:37;;;;;;;4.50;4.10;;;;;;;16.77;59.51;99286.08;1820146;78;21145;-68
2021/04/21 07:42:07;;;;;;;4.95;4.45;;;;;;;16.79;59.49;99287.20;1810870;77;21141;-68
2021/04/21 07:44:38;;;;;;;5.05;4.53;;;;;;;16.82;59.45;99290.27;1812642;78;21192;-68
2021/04/21 07:47:10;;;;;;;4.80;4.40;;;;;;;16.85;59.42;99289.03;1821037;77;21142;-68
2021/04/21 07:49:48;;;;;;;4.78;4.37;;;;;;;16.87;59.41;99295.81;1819228;76;21133;-69
2021/04/21 07:52:27;;;;;;;4.92;4.42;;;;;;;16.91;59.36;99296.20;1845658;75;21638;-68
2021/04/21 07:55:16;;;;;;;5.17;4.22;;;;;;;16.93;59.32;99299.48;1793212;77;21134;-67
2021/04/21 07:57:59;;;;;;;4.35;3.95;;;;;;;16.96;59.25;99296.37;1815212;77;21388;-66
2021/04/21 08:00:28;;;;;;;4.87;4.37;;;;;;;16.99;59.25;99303.95;1804565;77;21593;-66
2021/04/21 08:02:57;;;;;;;4.83;4.40;;;;;;;17.01;59.25;99296.50;1806811;77;21589;-67
2021/04/21 08:05:24;;;;;;;4.25;3.85;;;;;;;17.05;59.25;99300.91;1814923;76;21100;-73
2021/04/21 08:08:01;;;;;;;4.33;3.92;;;;;;;17.07;59.26;99309.06;1807261;78;21122;-73
2021/04/21 08:10:35;;;;;;;4.50;4.10;;;;;;;17.10;59.26;99308.60;1800576;78;21743;-70
2021/04/21 08:13:03;;;;;;;4.83;4.37;;;;;;;17.13;59.23;99304.64;1820998;76;28572;-73
2021/04/21 08:15:34;;;;;;;4.40;3.75;;;;;;;17.16;59.19;99313.61;1810154;77;21203;-74
2021/04/21 08:18:09;;;;;;;4.58;3.70;;;;;;;17.19;59.19;99309.65;1796019;78;21154;-68
2021/04/21 08:20:51;;;;;;;4.83;4.15;;;;;;;17.22;59.17;99311.38;1838929;75;21148;-72
2021/04/21 08:23:21;;;;;;;4.53;4.12;;;;;;;17.25;59.11;99310.13;1835227;77;22534;-70
2021/04/21 08:25:50;;;;;;;4.70;3.75;;;;;;;17.27;59.08;99312.07;1852661;77;21148;-74
2021/04/21 08:28:19;;;;;;;4.80;3.83;;;;;;;17.31;59.13;99314.61;1851297;77;21594;-71
2021/04/21 08:30:56;;;;;;;4.92;3.85;;;;;;;17.36;59.08;99309.89;1833091;77;21616;-71
2021/04/21 08:33:25;;;;;;;4.40;3.98;;;;;;;17.39;59.09;99307.59;1842802;77;21257;-70
2021/04/21 08:35:52;;;;;;;4.00;3.67;;;;;;;17.41;59.00;99313.56;1834083;77;21233;-69
2021/04/21 08:38:20;;;;;;;5.03;4.33;;;;;;;17.44;59.00;99313.63;1856555;77;21156;-69
2021/04/21 08:40:47;;;;;;;3.87;3.58;;;;;;;17.44;58.94;99313.13;1856620;77;21137;-69
2021/04/21 08:43:16;;;;;;;3.52;3.22;;;;;;;17.46;58.89;99316.41;1854490;77;21165;-72
2021/04/21 08:45:44;;;;;;;4.25;3.85;;;;;;;17.46;58.84;99315.06;1836672;77;21127;-72
2021/04/21 08:48:13;;;;;;;4.00;3.60;;;;;;;17.45;58.78;99315.28;1806710;78;21593;-72
2021/04/21 08:53:11;;;;;;;3.95;3.60;;;;;;;17.50;58.74;99307.38;1751522;79;28303;-71
2021/04/21 08:55:39;;;;;;;3.75;3.40;;;;;;;17.40;58.87;99311.94;1721197;82;21521;-71
2021/04/21 08:58:09;;;;;;;5.08;3.90;;;;;;;17.42;58.79;99319.24;1723179;82;21573;-70
2021/04/21 09:00:39;;;;;;;3.65;3.35;;;;;;;17.43;58.71;99318.18;1720758;82;21224;-74
2021/04/21 09:03:07;;;;;;;3.55;3.17;;;;;;;17.45;58.65;99319.30;1728297;82;21172;-72
2021/04/21 09:05:35;;;;;;;3.50;3.15;;;;;;;17.46;58.55;99325.80;1723620;82;21191;-72
2021/04/21 09:08:03;;;;;;;3.92;3.52;;;;;;;17.49;58.48;99321.84;1728593;82;21608;-73
2021/04/21 09:10:30;;;;;;;4.22;3.83;;;;;;;17.52;58.33;99324.09;1722645;82;21365;-73
2021/04/21 09:12:58;;;;;;;3.52;3.22;;;;;;;17.57;58.20;99326.09;1710565;82;21998;-66
2021/04/21 09:15:25;;;;;;;3.67;3.37;;;;;;;17.63;57.99;99324.66;1725209;82;21654;-67
2021/04/21 09:17:56;;;;;;;3.52;3.22;;;;;;;17.70;57.86;99324.59;1713211;82;21607;-68
2021/04/21 09:20:25;;;;;;;4.50;3.42;;;;;;;17.77;57.75;99326.70;1726057;82;21103;-69
2021/04/21 09:23:06;;;;;;;4.12;3.72;;;;;;;17.85;57.55;99320.23;1724672;82;21374;-68
2021/04/21 09:25:53;;;;;;;4.25;3.85;;;;;;;17.92;57.51;99316.09;1721177;82;21206;-69
2021/04/21 09:28:22;;;;;;;3.95;3.50;;;;;;;18.00;57.38;99313.09;1714221;82;21115;-69
2021/04/21 09:30:53;;;;;;;4.17;3.85;;;;;;;18.07;57.33;99309.27;1713438;82;21665;-68
2021/04/21 09:33:27;;;;;;;3.70;3.40;;;;;;;18.16;57.40;99310.31;1721862;82;21560;-69
2021/04/21 09:35:55;;;;;;;3.42;3.12;;;;;;;18.25;57.37;99307.58;1720378;82;21362;-71
2021/04/21 09:38:27;;;;;;;3.58;3.27;;;;;;;18.33;57.37;99308.62;1726795;82;21159;-70
2021/04/21 09:41:00;;;;;;;3.75;3.40;;;;;;;18.41;57.40;99304.78;1726928;82;21642;-68
2021/04/21 09:43:35;;;;;;;3.50;3.20;;;;;;;18.51;57.21;99304.22;1726292;82;21215;-69
2021/04/21 09:46:06;;;;;;;3.40;2.87;;;;;;;18.59;57.27;99308.72;1683969;85;21130;-68
2021/04/21 09:48:37;;;;;;;3.50;3.20;;;;;;;18.69;57.24;99304.66;1704998;83;21422;-69
2021/04/21 09:51:08;;;;;;;3.47;3.17;;;;;;;18.79;57.24;99309.73;1691033;84;21372;-71
2021/04/21 09:53:41;;;;;;;3.77;3.22;;;;;;;18.89;57.23;99312.41;1678271;84;21172;-73
2021/04/21 09:56:19;;;;;;;3.15;2.85;;;;;;;19.00;57.05;99315.11;1673382;84;21132;-70
2021/04/21 09:58:53;;;;;;;3.02;2.83;;;;;;;19.11;56.94;99308.63;1670417;84;21192;-70
2021/04/21 10:01:35;;;;;;;3.40;3.10;;;;;;;19.23;56.95;99318.86;1668099;84;21379;-66
2021/04/21 10:04:19;;;;;;;2.75;2.55;;;;;;;19.33;56.90;99311.00;1678992;84;21187;-68
2021/04/21 10:32:27;;;;;;;4.15;2.80;;;;;;;19.74;55.84;99307.03;1714866;82;21161;-68
2021/04/21 10:34:54;;;;;;;2.77;2.50;;;;;;;19.78;56.20;99302.80;1720110;82;21211;-68
2021/04/21 10:37:23;;;;;;;3.67;2.98;;;;;;;19.82;56.00;99314.23;1712913;82;21376;-67
2021/04/21 10:39:54;;;;;;;3.08;2.77;;;;;;;19.86;55.87;99319.12;1729421;82;21654;-69
2021/04/21 10:42:23;;;;;;;2.83;2.60;;;;;;;19.87;55.78;99318.08;1729463;82;21121;-66
2021/04/21 10:44:52;;;;;;;2.77;2.58;;;;;;;19.87;55.69;99325.63;1719848;82;21184;-65
2021/04/21 10:47:29;;;;;;;2.75;2.40;;;;;;;19.86;55.67;99332.09;1717303;82;21175;-70
2021/04/21 10:50:04;;;;;;;2.92;2.62;;;;;;;19.85;55.60;99331.79;1724482;82;21335;-69
2021/04/21 10:52:41;;;;;;;3.15;2.85;;;;;;;19.82;55.61;99334.44;1715716;82;21167;-69
2021/04/21 10:55:17;;;;;;;3.22;2.62;;;;;;;19.80;55.64;99327.66;1710109;82;21196;-71
2021/04/21 10:58:00;;;;;;;2.90;2.70;;;;;;;19.79;55.66;99334.91;1712307;82;21155;-68
2021/04/21 11:00:31;;;;;;;2.77;2.58;;;;;;;19.80;55.77;99334.40;1718535;82;21660;-70
2021/04/21 11:03:12;;;;;;;2.83;2.62;;;;;;;19.85;56.05;99333.13;1714665;82;21507;-69
2021/04/21 11:05:51;;;;;;;3.05;2.75;;;;;;;19.92;56.49;99333.02;1714378;82;21176;-68
2021/04/21 11:08:22;;;;;;;2.70;2.50;;;;;;;20.01;56.78;99332.39;1708341;82;21160;-72
2021/04/21 11:11:04;;;;;;;3.10;2.80;;;;;;;20.14;57.15;99327.23;1713806;82;21124;-70
2021/04/21 11:13:41;;;;;;;2.60;2.40;;;;;;;20.30;56.98;99334.25;1706071;82;21159;-66
2021/04/21 11:16:26;;;;;;;2.42;2.22;;;;;;;20.45;56.76;99331.83;1692925;82;21389;-69
2021/04/21 11:18:55;;;;;;;3.33;2.65;;;;;;;20.60;56.29;99326.73;1694824;82;21215;-67
2021/04/21 11:21:23;;;;;;;3.10;2.33;;;;;;;20.78;56.44;99320.81;1696925;82;21176;-73
2021/04/21 11:24:08;;;;;;;2.80;2.60;;;;;;;20.95;56.56;99312.72;1679432;82;21188;-69
2021/04/21 11:26:41;;;;;;;2.67;2.47;;;;;;;21.14;56.52;99313.27;1717707;82;21136;-66
2021/04/21 11:29:25;;;;;;;2.72;2.50;;;;;;;21.34;56.29;99285.72;1703297;80;21280;-69
2021/04/21 11:31:58;;;;;;;2.80;2.60;;;;;;;21.53;56.19;99307.34;1724404;81;21201;-73
2021/04/21 11:34:38;;;;;;;3.10;2.80;;;;;;;21.77;55.90;99309.28;1714475;81;21656;-71
2021/04/21 11:37:18;;;;;;;3.00;2.80;;;;;;;21.98;56.08;99310.34;1710674;81;21207;-70
2021/04/21 11:40:00;;;;;;;2.52;2.33;;;;;;;22.28;55.90;99305.53;1674954;84;21187;-73
2021/04/21 11:42:44;;;;;;;2.37;2.17;;;;;;;22.62;55.53;99302.05;1676351;83;21219;-71
2021/04/21 11:45:24;;;;;;;2.35;2.15;;;;;;;22.99;54.87;99302.59;1681957;84;21204;-71
2021/04/21 11:48:07;;;;;;;2.60;2.40;;;;;;;23.21;53.92;99300.32;1666496;84;21128;-75
2021/04/21 11:50:37;;;;;;;2.40;2.20;;;;;;;23.30;53.34;99301.46;1666519;84;21155;-73
2021/04/21 11:53:16;;;;;;;2.30;2.10;;;;;;;23.31;52.87;99301.20;1677643;84;22231;-73
2021/04/21 11:58:40;;;;;;;2.25;2.05;;;;;;;23.44;52.12;99292.31;1826598;77;22712;-70
2021/04/21 12:01:11;;;;;;;2.25;2.10;;;;;;;23.51;51.77;99297.77;1767870;79;21182;-72
2021/04/21 12:03:40;;;;;;;2.50;2.30;;;;;;;23.64;51.48;99299.71;1809125;78;22269;-71
2021/04/21 12:06:16;;;;;;;2.92;2.62;;;;;;;23.76;51.32;99304.39;1795219;77;21161;-71
2021/04/21 12:08:50;;;;;;;2.40;2.20;;;;;;;23.97;50.87;99298.52;1806299;78;21208;-70
2021/04/21 12:11:28;;;;;;;2.52;2.33;;;;;;;24.25;50.40;99301.83;1808279;78;21165;-71
2021/04/21 12:13:56;;;;;;;2.30;2.10;;;;;;;24.53;50.06;99306.78;1806916;78;21573;-69
2021/04/21 12:16:25;;;;;;;3.17;2.25;;;;;;;24.84;49.31;99291.84;1811632;77;23642;-67
2021/04/21 12:18:55;;;;;;;2.37;2.22;;;;;;;25.12;48.73;99288.25;1801008;78;21176;-65
2021/04/21 12:21:30;;;;;;;2.60;2.40;;;;;;;25.22;48.59;99284.17;1793820;78;21122;-66
2021/04/21 12:24:04;;;;;;;2.35;2.15;;;;;;;25.31;48.22;99285.80;1801658;78;21134;-69
2021/04/21 12:26:39;;;;;;;2.92;2.70;;;;;;;25.36;48.06;99284.39;1798859;78;21155;-69
2021/04/21 12:29:14;;;;;;;2.25;2.00;;;;;;;25.40;48.12;99286.02;1796699;78;21340;-67
2021/04/21 12:31:44;;;;;;;1.98;1.87;;;;;;;25.42;48.05;99279.23;1793781;78;21141;-68
2021/04/21 12:34:24;;;;;;;2.00;1.90;;;;;;;25.45;48.03;99288.18;1789276;78;21105;-67
2021/04/21 12:36:53;;;;;;;2.35;2.15;;;;;;;25.47;48.07;99283.28;1791094;78;21158;-67
2021/04/21 12:39:22;;;;;;;2.00;1.90;;;;;;;25.51;48.25;99282.98;1810402;78;21629;-67
2021/04/21 12:42:00;;;;;;;1.92;1.82;;;;;;;25.66;48.03;99286.20;1808333;78;21372;-66
2021/04/21 12:44:40;;;;;;;2.05;1.95;;;;;;;25.84;47.75;99296.17;1803791;78;21172;-68
2021/04/21 12:47:10;;;;;;;2.17;2.05;;;;;;;26.04;47.52;99287.95;1803729;79;21602;-68